sensor_id;sensor_type;location;lat;lon;timestamp;temperature;humidity
51253;DHT22;38936;47.808;19.936;2022-10-23T00:01:23;11.10;99.90
51253;DHT22;38936;47.808;19.936;2022-10-23T00:03:52;11.10;99.90
51253;DHT22;38936;47.808;19.936;2022-10-23T00:06:18;11.20;99.90
51253;DHT22;38936;47.808;19.936;2022-10-23T00:08:45;11.20;99.90
51253;DHT22;38936;47.808;19.936;2022-10-23T00:11:13;11.30;99.90
51253;DHT22;38936;47.808;19.936;2022-10-23T00:13:39;11.30;99.90
51253;DHT22;38936;47.808;19.936;2022-10-23T00:16:07;11.30;99.90
51253;DHT22;38936;47.808;19.936;2022-10-23T00:18:33;11.40;99.90
51253;DHT22;38936;47.808;19.936;2022-10-23T00:21:00;11.30;99.90
51253;DHT22;38936;47.808;19.936;2022-10-23T00:23:25;11.20;99.90
51253;DHT22;38936;47.808;19.936;2022-10-23T00:25:51;11.20;99.90
51253;DHT22;38936;47.808;19.936;2022-10-23T00:28:17;11.20;99.90
51253;DHT22;38936;47.808;19.936;2022-10-23T00:30:42;11.30;99.90
51253;DHT22;38936;47.808;19.936;2022-10-23T00:33:08;11.30;99.90
51253;DHT22;38936;47.808;19.936;2022-10-23T00:35:37;11.40;99.90
51253;DHT22;38936;47.808;19.936;2022-10-23T00:38:03;11.40;99.90
51253;DHT22;38936;47.808;19.936;2022-10-23T00:40:28;11.50;99.90
51253;DHT22;38936;47.808;19.936;2022-10-23T00:42:54;11.50;99.90
51253;DHT22;38936;47.808;19.936;2022-10-23T00:45:21;11.50;99.90
51253;DHT22;38936;47.808;19.936;2022-10-23T00:47:48;11.50;99.90
51253;DHT22;38936;47.808;19.936;2022-10-23T00:50:14;11.50;99.90
51253;DHT22;38936;47.808;19.936;2022-10-23T00:52:46;11.60;99.90
51253;DHT22;38936;47.808;19.936;2022-10-23T00:55:13;11.50;99.90
51253;DHT22;38936;47.808;19.936;2022-10-23T00:57:42;11.50;99.90
51253;DHT22;38936;47.808;19.936;2022-10-23T01:00:15;11.60;99.90
51253;DHT22;38936;47.808;19.936;2022-10-23T01:02:41;11.60;99.90
51253;DHT22;38936;47.808;19.936;2022-10-23T01:05:07;11.70;99.90
51253;DHT22;38936;47.808;19.936;2022-10-23T01:08:16;11.70;99.90
51253;DHT22;38936;47.808;19.936;2022-10-23T01:10:53;11.70;99.90
51253;DHT22;38936;47.808;19.936;2022-10-23T01:13:54;11.70;99.90
51253;DHT22;38936;47.808;19.936;2022-10-23T01:28:13;11.90;99.90
51253;DHT22;38936;47.808;19.936;2022-10-23T01:30:42;11.90;99.90
51253;DHT22;38936;47.808;19.936;2022-10-23T01:33:32;12.00;99.90
51253;DHT22;38936;47.808;19.936;2022-10-23T01:36:05;12.10;99.90
51253;DHT22;38936;47.808;19.936;2022-10-23T01:38:50;12.10;99.90
51253;DHT22;38936;47.808;19.936;2022-10-23T01:41:29;12.10;99.90
51253;DHT22;38936;47.808;19.936;2022-10-23T01:46:49;12.20;99.90
51253;DHT22;38936;47.808;19.936;2022-10-23T01:49:19;12.20;99.90
51253;DHT22;38936;47.808;19.936;2022-10-23T01:51:53;12.20;99.90
51253;DHT22;38936;47.808;19.936;2022-10-23T01:54:24;12.10;99.90
51253;DHT22;38936;47.808;19.936;2022-10-23T01:56:50;12.10;99.90
51253;DHT22;38936;47.808;19.936;2022-10-23T01:59:21;12.00;99.90
51253;DHT22;38936;47.808;19.936;2022-10-23T02:01:50;11.70;99.90
51253;DHT22;38936;47.808;19.936;2022-10-23T02:04:24;11.60;99.90
51253;DHT22;38936;47.808;19.936;2022-10-23T02:06:51;11.50;99.90
51253;DHT22;38936;47.808;19.936;2022-10-23T02:09:17;11.30;99.90
51253;DHT22;38936;47.808;19.936;2022-10-23T02:14:41;11.00;99.90
51253;DHT22;38936;47.808;19.936;2022-10-23T02:22:45;10.80;99.90
51253;DHT22;38936;47.808;19.936;2022-10-23T02:27:39;10.70;99.90
51253;DHT22;38936;47.808;19.936;2022-10-23T02:30:09;10.70;99.90
51253;DHT22;38936;47.808;19.936;2022-10-23T02:32:39;10.70;99.90
51253;DHT22;38936;47.808;19.936;2022-10-23T02:35:06;10.70;99.90
51253;DHT22;38936;47.808;19.936;2022-10-23T02:37:33;10.70;99.90
51253;DHT22;38936;47.808;19.936;2022-10-23T02:39:58;10.60;99.90
51253;DHT22;38936;47.808;19.936;2022-10-23T02:42:41;10.50;99.90
51253;DHT22;38936;47.808;19.936;2022-10-23T02:45:35;10.50;99.90
51253;DHT22;38936;47.808;19.936;2022-10-23T02:48:22;10.40;99.90
51253;DHT22;38936;47.808;19.936;2022-10-23T02:51:17;10.30;99.90
51253;DHT22;38936;47.808;19.936;2022-10-23T02:54:10;10.30;99.90
51253;DHT22;38936;47.808;19.936;2022-10-23T02:56:50;10.20;99.90
51253;DHT22;38936;47.808;19.936;2022-10-23T02:59:19;10.20;99.90
51253;DHT22;38936;47.808;19.936;2022-10-23T03:01:56;10.10;99.90
51253;DHT22;38936;47.808;19.936;2022-10-23T03:04:24;10.00;99.90
51253;DHT22;38936;47.808;19.936;2022-10-23T03:06:50;9.90;99.90
51253;DHT22;38936;47.808;19.936;2022-10-23T03:09:16;9.80;99.90
51253;DHT22;38936;47.808;19.936;2022-10-23T03:11:42;9.80;99.90
51253;DHT22;38936;47.808;19.936;2022-10-23T03:14:07;9.70;99.90
51253;DHT22;38936;47.808;19.936;2022-10-23T03:16:33;9.60;99.90
51253;DHT22;38936;47.808;19.936;2022-10-23T03:18:59;9.50;99.90
51253;DHT22;38936;47.808;19.936;2022-10-23T03:21:25;9.40;99.90
51253;DHT22;38936;47.808;19.936;2022-10-23T03:23:50;9.40;99.90
51253;DHT22;38936;47.808;19.936;2022-10-23T03:26:16;9.30;99.90
51253;DHT22;38936;47.808;19.936;2022-10-23T03:28:41;9.20;99.90
51253;DHT22;38936;47.808;19.936;2022-10-23T03:31:07;9.10;99.90
51253;DHT22;38936;47.808;19.936;2022-10-23T03:33:32;9.10;99.90
51253;DHT22;38936;47.808;19.936;2022-10-23T03:35:58;9.00;99.90
51253;DHT22;38936;47.808;19.936;2022-10-23T03:38:23;9.00;99.90
51253;DHT22;38936;47.808;19.936;2022-10-23T03:40:49;8.90;99.90
51253;DHT22;38936;47.808;19.936;2022-10-23T03:43:14;8.90;99.90
51253;DHT22;38936;47.808;19.936;2022-10-23T03:45:40;8.90;99.90
51253;DHT22;38936;47.808;19.936;2022-10-23T03:48:06;8.90;99.90
51253;DHT22;38936;47.808;19.936;2022-10-23T03:50:31;9.00;99.90
51253;DHT22;38936;47.808;19.936;2022-10-23T03:52:57;8.90;99.90
51253;DHT22;38936;47.808;19.936;2022-10-23T03:55:22;8.90;99.90
51253;DHT22;38936;47.808;19.936;2022-10-23T03:57:50;8.80;99.90
51253;DHT22;38936;47.808;19.936;2022-10-23T04:00:15;8.80;99.90
51253;DHT22;38936;47.808;19.936;2022-10-23T04:02:41;8.80;99.90
51253;DHT22;38936;47.808;19.936;2022-10-23T04:05:06;8.70;99.90
51253;DHT22;38936;47.808;19.936;2022-10-23T04:07:32;8.70;99.90
51253;DHT22;38936;47.808;19.936;2022-10-23T04:09:57;8.70;99.90
51253;DHT22;38936;47.808;19.936;2022-10-23T04:12:23;8.60;99.90
51253;DHT22;38936;47.808;19.936;2022-10-23T04:14:49;8.60;99.90
51253;DHT22;38936;47.808;19.936;2022-10-23T04:17:14;8.60;99.90
51253;DHT22;38936;47.808;19.936;2022-10-23T04:19:40;8.60;99.90
51253;DHT22;38936;47.808;19.936;2022-10-23T04:22:05;8.60;99.90
51253;DHT22;38936;47.808;19.936;2022-10-23T04:24:31;8.50;99.90
51253;DHT22;38936;47.808;19.936;2022-10-23T04:26:56;8.60;99.90
51253;DHT22;38936;47.808;19.936;2022-10-23T04:29:22;8.70;99.90
51253;DHT22;38936;47.808;19.936;2022-10-23T04:31:49;8.70;99.90
51253;DHT22;38936;47.808;19.936;2022-10-23T04:34:16;8.70;99.90
51253;DHT22;38936;47.808;19.936;2022-10-23T04:36:42;8.70;99.90
51253;DHT22;38936;47.808;19.936;2022-10-23T04:39:07;8.70;99.90
51253;DHT22;38936;47.808;19.936;2022-10-23T04:41:33;8.60;99.90
51253;DHT22;38936;47.808;19.936;2022-10-23T04:43:58;8.60;99.90
51253;DHT22;38936;47.808;19.936;2022-10-23T04:46:24;8.50;99.90
51253;DHT22;38936;47.808;19.936;2022-10-23T04:48:50;8.60;99.90
51253;DHT22;38936;47.808;19.936;2022-10-23T04:51:15;8.50;99.90
51253;DHT22;38936;47.808;19.936;2022-10-23T04:53:41;8.60;99.90
51253;DHT22;38936;47.808;19.936;2022-10-23T04:56:06;8.50;99.90
51253;DHT22;38936;47.808;19.936;2022-10-23T04:58:32;8.60;99.90
51253;DHT22;38936;47.808;19.936;2022-10-23T05:00:58;8.60;99.90
51253;DHT22;38936;47.808;19.936;2022-10-23T05:03:23;8.70;99.90
51253;DHT22;38936;47.808;19.936;2022-10-23T05:05:52;8.70;99.90
51253;DHT22;38936;47.808;19.936;2022-10-23T05:08:19;8.60;99.90
51253;DHT22;38936;47.808;19.936;2022-10-23T05:10:46;8.60;99.90
51253;DHT22;38936;47.808;19.936;2022-10-23T05:13:12;8.60;99.90
51253;DHT22;38936;47.808;19.936;2022-10-23T05:15:37;8.50;99.90
51253;DHT22;38936;47.808;19.936;2022-10-23T05:18:31;8.40;99.90
51253;DHT22;38936;47.808;19.936;2022-10-23T05:21:08;8.40;99.90
51253;DHT22;38936;47.808;19.936;2022-10-23T05:23:35;8.40;99.90
51253;DHT22;38936;47.808;19.936;2022-10-23T05:26:03;8.30;99.90
51253;DHT22;38936;47.808;19.936;2022-10-23T05:28:29;8.30;99.90
51253;DHT22;38936;47.808;19.936;2022-10-23T05:30:56;8.40;99.90
51253;DHT22;38936;47.808;19.936;2022-10-23T05:33:23;8.30;99.90
51253;DHT22;38936;47.808;19.936;2022-10-23T05:35:48;8.30;99.90
51253;DHT22;38936;47.808;19.936;2022-10-23T05:38:14;8.30;99.90
51253;DHT22;38936;47.808;19.936;2022-10-23T05:40:40;8.30;99.90
51253;DHT22;38936;47.808;19.936;2022-10-23T05:43:06;8.40;99.90
51253;DHT22;38936;47.808;19.936;2022-10-23T05:45:31;8.30;99.90
51253;DHT22;38936;47.808;19.936;2022-10-23T05:47:57;8.30;99.90
51253;DHT22;38936;47.808;19.936;2022-10-23T05:50:22;8.30;99.90
51253;DHT22;38936;47.808;19.936;2022-10-23T05:52:48;8.20;99.90
51253;DHT22;38936;47.808;19.936;2022-10-23T05:55:14;8.20;99.90
51253;DHT22;38936;47.808;19.936;2022-10-23T05:57:40;8.30;99.90
51253;DHT22;38936;47.808;19.936;2022-10-23T06:00:06;8.30;99.90
51253;DHT22;38936;47.808;19.936;2022-10-23T06:02:32;8.30;99.90
51253;DHT22;38936;47.808;19.936;2022-10-23T06:04:58;8.20;99.90
51253;DHT22;38936;47.808;19.936;2022-10-23T06:07:24;8.40;99.90
51253;DHT22;38936;47.808;19.936;2022-10-23T06:09:50;8.40;99.90
51253;DHT22;38936;47.808;19.936;2022-10-23T06:12:17;8.50;99.90
51253;DHT22;38936;47.808;19.936;2022-10-23T06:14:43;8.70;99.90
51253;DHT22;38936;47.808;19.936;2022-10-23T06:17:09;8.90;99.90
51253;DHT22;38936;47.808;19.936;2022-10-23T06:19:34;9.30;99.90
51253;DHT22;38936;47.808;19.936;2022-10-23T06:22:00;9.90;99.90
51253;DHT22;38936;47.808;19.936;2022-10-23T06:24:25;10.40;99.90
51253;DHT22;38936;47.808;19.936;2022-10-23T06:26:51;11.10;99.90
51253;DHT22;38936;47.808;19.936;2022-10-23T06:29:16;11.70;99.90
51253;DHT22;38936;47.808;19.936;2022-10-23T06:31:42;12.20;99.90
51253;DHT22;38936;47.808;19.936;2022-10-23T06:34:10;12.90;99.90
51253;DHT22;38936;47.808;19.936;2022-10-23T06:36:36;13.70;99.90
51253;DHT22;38936;47.808;19.936;2022-10-23T06:39:03;14.30;99.90
51253;DHT22;38936;47.808;19.936;2022-10-23T06:41:28;14.90;99.90
51253;DHT22;38936;47.808;19.936;2022-10-23T06:43:54;15.20;99.90
51253;DHT22;38936;47.808;19.936;2022-10-23T06:46:20;15.60;99.90
51253;DHT22;38936;47.808;19.936;2022-10-23T06:48:46;15.80;99.90
51253;DHT22;38936;47.808;19.936;2022-10-23T06:51:14;15.70;99.90
51253;DHT22;38936;47.808;19.936;2022-10-23T06:53:42;15.70;99.90
51253;DHT22;38936;47.808;19.936;2022-10-23T06:56:09;15.70;99.90
51253;DHT22;38936;47.808;19.936;2022-10-23T06:58:36;15.90;99.90
51253;DHT22;38936;47.808;19.936;2022-10-23T07:01:04;16.10;99.90
51253;DHT22;38936;47.808;19.936;2022-10-23T07:03:31;16.30;99.90
51253;DHT22;38936;47.808;19.936;2022-10-23T07:06:00;16.40;99.90
51253;DHT22;38936;47.808;19.936;2022-10-23T07:08:26;16.20;99.90
51253;DHT22;38936;47.808;19.936;2022-10-23T07:10:52;16.00;99.90
51253;DHT22;38936;47.808;19.936;2022-10-23T07:13:18;15.80;99.90
51253;DHT22;38936;47.808;19.936;2022-10-23T07:15:44;15.80;99.90
51253;DHT22;38936;47.808;19.936;2022-10-23T07:18:09;15.80;99.90
51253;DHT22;38936;47.808;19.936;2022-10-23T07:20:42;15.90;99.90
51253;DHT22;38936;47.808;19.936;2022-10-23T07:23:10;15.90;99.90
51253;DHT22;38936;47.808;19.936;2022-10-23T07:25:36;16.00;99.90
51253;DHT22;38936;47.808;19.936;2022-10-23T07:28:03;16.10;99.90
51253;DHT22;38936;47.808;19.936;2022-10-23T07:30:29;16.10;99.90
51253;DHT22;38936;47.808;19.936;2022-10-23T07:32:55;16.10;99.90
51253;DHT22;38936;47.808;19.936;2022-10-23T07:35:21;16.10;99.90
51253;DHT22;38936;47.808;19.936;2022-10-23T07:37:46;16.00;99.90
51253;DHT22;38936;47.808;19.936;2022-10-23T07:40:13;16.00;99.90
51253;DHT22;38936;47.808;19.936;2022-10-23T07:42:38;15.90;99.90
51253;DHT22;38936;47.808;19.936;2022-10-23T07:45:05;15.90;99.90
51253;DHT22;38936;47.808;19.936;2022-10-23T07:47:32;15.90;99.90
51253;DHT22;38936;47.808;19.936;2022-10-23T07:49:58;15.90;99.90
51253;DHT22;38936;47.808;19.936;2022-10-23T07:52:24;16.00;99.90
51253;DHT22;38936;47.808;19.936;2022-10-23T07:54:50;16.00;99.90
51253;DHT22;38936;47.808;19.936;2022-10-23T07:57:16;16.00;99.90
51253;DHT22;38936;47.808;19.936;2022-10-23T07:59:42;16.10;99.90
51253;DHT22;38936;47.808;19.936;2022-10-23T08:02:12;16.40;99.90
51253;DHT22;38936;47.808;19.936;2022-10-23T08:04:38;16.80;99.90
51253;DHT22;38936;47.808;19.936;2022-10-23T08:07:04;17.20;99.90
51253;DHT22;38936;47.808;19.936;2022-10-23T08:09:29;17.60;99.90
51253;DHT22;38936;47.808;19.936;2022-10-23T08:11:55;18.00;99.90
51253;DHT22;38936;47.808;19.936;2022-10-23T08:14:21;18.50;99.90
51253;DHT22;38936;47.808;19.936;2022-10-23T08:16:46;19.00;99.90
51253;DHT22;38936;47.808;19.936;2022-10-23T08:19:12;19.40;99.90
51253;DHT22;38936;47.808;19.936;2022-10-23T08:21:38;19.80;99.90
51253;DHT22;38936;47.808;19.936;2022-10-23T08:24:04;20.20;99.90
51253;DHT22;38936;47.808;19.936;2022-10-23T08:26:30;20.60;99.90
51253;DHT22;38936;47.808;19.936;2022-10-23T08:28:58;20.90;99.90
51253;DHT22;38936;47.808;19.936;2022-10-23T08:31:24;21.10;99.90
51253;DHT22;38936;47.808;19.936;2022-10-23T08:33:50;21.30;99.90
51253;DHT22;38936;47.808;19.936;2022-10-23T08:36:24;21.60;99.90
51253;DHT22;38936;47.808;19.936;2022-10-23T08:38:51;22.00;99.90
51253;DHT22;38936;47.808;19.936;2022-10-23T08:41:32;22.30;99.90
51253;DHT22;38936;47.808;19.936;2022-10-23T08:46:31;22.80;98.50
51253;DHT22;38936;47.808;19.936;2022-10-23T08:51:47;23.20;97.00
51253;DHT22;38936;47.808;19.936;2022-10-23T08:56:57;23.50;95.80
51253;DHT22;38936;47.808;19.936;2022-10-23T08:59:44;23.40;95.60
51253;DHT22;38936;47.808;19.936;2022-10-23T09:02:20;23.60;95.20
51253;DHT22;38936;47.808;19.936;2022-10-23T09:04:51;24.10;94.40
51253;DHT22;38936;47.808;19.936;2022-10-23T09:12:23;24.30;93.40
51253;DHT22;38936;47.808;19.936;2022-10-23T09:15:18;24.50;93.00
51253;DHT22;38936;47.808;19.936;2022-10-23T09:18:00;24.80;92.50
51253;DHT22;38936;47.808;19.936;2022-10-23T09:20:33;24.90;92.40
51253;DHT22;38936;47.808;19.936;2022-10-23T09:23:22;25.10;91.70
51253;DHT22;38936;47.808;19.936;2022-10-23T09:25:51;24.80;92.20
51253;DHT22;38936;47.808;19.936;2022-10-23T09:28:24;24.70;92.70
51253;DHT22;38936;47.808;19.936;2022-10-23T09:30:51;25.00;92.10
51253;DHT22;38936;47.808;19.936;2022-10-23T09:33:23;25.10;91.40
51253;DHT22;38936;47.808;19.936;2022-10-23T09:44:25;24.40;92.00
51253;DHT22;38936;47.808;19.936;2022-10-23T09:46:53;23.60;92.90
51253;DHT22;38936;47.808;19.936;2022-10-23T09:54:46;22.10;95.40
51253;DHT22;38936;47.808;19.936;2022-10-23T10:00:16;21.20;97.10
51253;DHT22;38936;47.808;19.936;2022-10-23T10:02:53;20.80;98.50
51253;DHT22;38936;47.808;19.936;2022-10-23T10:05:22;20.60;99.30
51253;DHT22;38936;47.808;19.936;2022-10-23T10:08:41;20.30;99.90
51253;DHT22;38936;47.808;19.936;2022-10-23T10:10:45;20.10;99.90
51253;DHT22;38936;47.808;19.936;2022-10-23T10:16:31;19.70;99.90
51253;DHT22;38936;47.808;19.936;2022-10-23T10:22:02;19.40;99.90
51253;DHT22;38936;47.808;19.936;2022-10-23T10:24:55;19.30;99.90
51253;DHT22;38936;47.808;19.936;2022-10-23T10:30:08;19.30;99.90
51253;DHT22;38936;47.808;19.936;2022-10-23T10:32:58;19.30;99.90
51253;DHT22;38936;47.808;19.936;2022-10-23T10:35:47;19.30;99.90
51253;DHT22;38936;47.808;19.936;2022-10-23T10:41:29;19.20;99.90
51253;DHT22;38936;47.808;19.936;2022-10-23T10:49:35;19.20;99.90
51253;DHT22;38936;47.808;19.936;2022-10-23T10:55:08;19.20;99.90
51253;DHT22;38936;47.808;19.936;2022-10-23T10:57:46;19.20;99.90
51253;DHT22;38936;47.808;19.936;2022-10-23T11:00:19;19.30;99.90
51253;DHT22;38936;47.808;19.936;2022-10-23T11:05:28;19.30;99.90
51253;DHT22;38936;47.808;19.936;2022-10-23T11:08:14;19.30;99.90
51253;DHT22;38936;47.808;19.936;2022-10-23T11:10:44;19.30;99.90
51253;DHT22;38936;47.808;19.936;2022-10-23T11:15:50;19.20;99.90
51253;DHT22;38936;47.808;19.936;2022-10-23T11:18:24;19.30;99.90
51253;DHT22;38936;47.808;19.936;2022-10-23T11:34:44;19.20;99.90
51253;DHT22;38936;47.808;19.936;2022-10-23T11:37:19;19.10;99.90
51253;DHT22;38936;47.808;19.936;2022-10-23T11:40:22;19.10;99.90
51253;DHT22;38936;47.808;19.936;2022-10-23T11:42:49;19.10;99.90
51253;DHT22;38936;47.808;19.936;2022-10-23T11:50:37;19.10;99.90
51253;DHT22;38936;47.808;19.936;2022-10-23T11:58:55;19.10;99.90
51253;DHT22;38936;47.808;19.936;2022-10-23T12:01:42;19.10;99.90
51253;DHT22;38936;47.808;19.936;2022-10-23T12:06:39;19.00;99.90
51253;DHT22;38936;47.808;19.936;2022-10-23T12:09:17;19.00;99.90
51253;DHT22;38936;47.808;19.936;2022-10-23T12:11:48;19.10;99.90
51253;DHT22;38936;47.808;19.936;2022-10-23T12:14:49;19.20;99.90
51253;DHT22;38936;47.808;19.936;2022-10-23T12:17:35;19.20;99.90
51253;DHT22;38936;47.808;19.936;2022-10-23T12:31:43;19.40;99.90
51253;DHT22;38936;47.808;19.936;2022-10-23T12:34:17;19.50;99.90
51253;DHT22;38936;47.808;19.936;2022-10-23T12:37:05;19.50;99.90
51253;DHT22;38936;47.808;19.936;2022-10-23T12:39:35;19.50;99.90
51253;DHT22;38936;47.808;19.936;2022-10-23T12:42:02;19.50;99.90
51253;DHT22;38936;47.808;19.936;2022-10-23T12:44:29;19.40;99.90
51253;DHT22;38936;47.808;19.936;2022-10-23T12:46:59;19.40;99.90
51253;DHT22;38936;47.808;19.936;2022-10-23T12:49:28;19.40;99.90
51253;DHT22;38936;47.808;19.936;2022-10-23T12:54:23;19.50;99.90
51253;DHT22;38936;47.808;19.936;2022-10-23T12:56:49;19.50;99.90
51253;DHT22;38936;47.808;19.936;2022-10-23T13:01:44;19.50;99.90
51253;DHT22;38936;47.808;19.936;2022-10-23T13:06:36;19.40;99.90
51253;DHT22;38936;47.808;19.936;2022-10-23T13:09:03;19.40;99.90
51253;DHT22;38936;47.808;19.936;2022-10-23T13:11:29;19.40;99.90
51253;DHT22;38936;47.808;19.936;2022-10-23T13:13:56;19.40;99.90
51253;DHT22;38936;47.808;19.936;2022-10-23T13:16:23;19.40;99.90
51253;DHT22;38936;47.808;19.936;2022-10-23T13:18:49;19.40;99.90
51253;DHT22;38936;47.808;19.936;2022-10-23T13:21:24;19.30;99.90
51253;DHT22;38936;47.808;19.936;2022-10-23T13:23:51;19.30;99.90
51253;DHT22;38936;47.808;19.936;2022-10-23T13:26:34;19.30;99.90
51253;DHT22;38936;47.808;19.936;2022-10-23T13:31:42;19.10;99.90
51253;DHT22;38936;47.808;19.936;2022-10-23T13:34:21;19.10;99.90
51253;DHT22;38936;47.808;19.936;2022-10-23T13:36:59;19.10;99.90
51253;DHT22;38936;47.808;19.936;2022-10-23T13:39:33;19.10;99.90
51253;DHT22;38936;47.808;19.936;2022-10-23T13:42:11;19.10;99.90
51253;DHT22;38936;47.808;19.936;2022-10-23T13:44:37;19.30;99.90
51253;DHT22;38936;47.808;19.936;2022-10-23T13:47:04;19.20;99.90
51253;DHT22;38936;47.808;19.936;2022-10-23T13:49:30;19.20;99.90
51253;DHT22;38936;47.808;19.936;2022-10-23T13:51:56;19.20;99.90
51253;DHT22;38936;47.808;19.936;2022-10-23T13:54:24;19.30;99.90
51253;DHT22;38936;47.808;19.936;2022-10-23T13:56:52;19.20;99.90
51253;DHT22;38936;47.808;19.936;2022-10-23T13:59:18;19.10;99.90
51253;DHT22;38936;47.808;19.936;2022-10-23T14:01:45;19.10;99.90
51253;DHT22;38936;47.808;19.936;2022-10-23T14:04:12;19.10;99.90
51253;DHT22;38936;47.808;19.936;2022-10-23T14:06:38;19.10;99.90
51253;DHT22;38936;47.808;19.936;2022-10-23T14:09:11;19.00;99.90
51253;DHT22;38936;47.808;19.936;2022-10-23T14:11:37;19.00;99.90
51253;DHT22;38936;47.808;19.936;2022-10-23T14:14:03;18.90;99.90
51253;DHT22;38936;47.808;19.936;2022-10-23T14:16:29;18.80;99.90
51253;DHT22;38936;47.808;19.936;2022-10-23T14:18:55;18.70;99.90
51253;DHT22;38936;47.808;19.936;2022-10-23T14:21:22;18.60;99.90
51253;DHT22;38936;47.808;19.936;2022-10-23T14:23:49;18.40;99.90
51253;DHT22;38936;47.808;19.936;2022-10-23T14:26:18;18.30;99.90
51253;DHT22;38936;47.808;19.936;2022-10-23T14:28:44;18.20;99.90
51253;DHT22;38936;47.808;19.936;2022-10-23T14:31:15;18.10;99.90
51253;DHT22;38936;47.808;19.936;2022-10-23T14:33:41;18.00;99.90
51253;DHT22;38936;47.808;19.936;2022-10-23T14:36:08;17.90;99.90
51253;DHT22;38936;47.808;19.936;2022-10-23T14:38:34;17.80;99.90
51253;DHT22;38936;47.808;19.936;2022-10-23T14:40:59;17.70;99.90
51253;DHT22;38936;47.808;19.936;2022-10-23T14:43:25;17.50;99.90
51253;DHT22;38936;47.808;19.936;2022-10-23T14:45:51;17.40;99.90
51253;DHT22;38936;47.808;19.936;2022-10-23T14:48:17;17.20;99.90
51253;DHT22;38936;47.808;19.936;2022-10-23T14:50:47;17.20;99.90
51253;DHT22;38936;47.808;19.936;2022-10-23T14:53:13;17.00;99.90
51253;DHT22;38936;47.808;19.936;2022-10-23T14:55:39;16.90;99.90
51253;DHT22;38936;47.808;19.936;2022-10-23T14:58:05;16.80;99.90
51253;DHT22;38936;47.808;19.936;2022-10-23T15:00:31;16.70;99.90
51253;DHT22;38936;47.808;19.936;2022-10-23T15:02:57;16.70;99.90
51253;DHT22;38936;47.808;19.936;2022-10-23T15:05:22;16.60;99.90
51253;DHT22;38936;47.808;19.936;2022-10-23T15:07:48;16.50;99.90
51253;DHT22;38936;47.808;19.936;2022-10-23T15:10:14;16.40;99.90
51253;DHT22;38936;47.808;19.936;2022-10-23T15:12:39;16.30;99.90
51253;DHT22;38936;47.808;19.936;2022-10-23T15:15:05;16.20;99.90
51253;DHT22;38936;47.808;19.936;2022-10-23T15:17:32;16.10;99.90
51253;DHT22;38936;47.808;19.936;2022-10-23T15:20:02;16.00;99.90
51253;DHT22;38936;47.808;19.936;2022-10-23T15:22:27;15.90;99.90
51253;DHT22;38936;47.808;19.936;2022-10-23T15:24:53;15.80;99.90
51253;DHT22;38936;47.808;19.936;2022-10-23T15:27:21;15.80;99.90
51253;DHT22;38936;47.808;19.936;2022-10-23T15:29:46;15.80;99.90
51253;DHT22;38936;47.808;19.936;2022-10-23T15:32:12;15.60;99.90
51253;DHT22;38936;47.808;19.936;2022-10-23T15:34:37;15.50;99.90
51253;DHT22;38936;47.808;19.936;2022-10-23T15:37:07;15.50;99.90
51253;DHT22;38936;47.808;19.936;2022-10-23T15:39:33;15.40;99.90
51253;DHT22;38936;47.808;19.936;2022-10-23T15:42:01;15.30;99.90
51253;DHT22;38936;47.808;19.936;2022-10-23T15:44:28;15.30;99.90
51253;DHT22;38936;47.808;19.936;2022-10-23T15:46:55;15.20;99.90
51253;DHT22;38936;47.808;19.936;2022-10-23T15:49:22;15.10;99.90
51253;DHT22;38936;47.808;19.936;2022-10-23T15:51:49;15.10;99.90
51253;DHT22;38936;47.808;19.936;2022-10-23T15:54:19;15.00;99.90
51253;DHT22;38936;47.808;19.936;2022-10-23T15:56:47;15.00;99.90
51253;DHT22;38936;47.808;19.936;2022-10-23T15:59:14;15.00;99.90
51253;DHT22;38936;47.808;19.936;2022-10-23T16:01:39;15.00;99.90
51253;DHT22;38936;47.808;19.936;2022-10-23T16:04:05;14.90;99.90
51253;DHT22;38936;47.808;19.936;2022-10-23T16:06:31;14.90;99.90
51253;DHT22;38936;47.808;19.936;2022-10-23T16:08:57;15.00;99.90
51253;DHT22;38936;47.808;19.936;2022-10-23T16:11:29;15.00;99.90
51253;DHT22;38936;47.808;19.936;2022-10-23T16:13:56;15.10;99.90
51253;DHT22;38936;47.808;19.936;2022-10-23T16:16:22;15.20;99.90
51253;DHT22;38936;47.808;19.936;2022-10-23T16:18:47;15.20;99.90
51253;DHT22;38936;47.808;19.936;2022-10-23T16:21:22;15.30;99.90
51253;DHT22;38936;47.808;19.936;2022-10-23T16:23:49;15.40;99.90
51253;DHT22;38936;47.808;19.936;2022-10-23T16:26:15;15.40;99.90
51253;DHT22;38936;47.808;19.936;2022-10-23T16:28:41;15.40;99.90
51253;DHT22;38936;47.808;19.936;2022-10-23T16:31:12;15.50;99.90
51253;DHT22;38936;47.808;19.936;2022-10-23T16:33:38;15.50;99.90
51253;DHT22;38936;47.808;19.936;2022-10-23T16:36:06;15.50;99.90
51253;DHT22;38936;47.808;19.936;2022-10-23T16:38:32;15.50;99.90
51253;DHT22;38936;47.808;19.936;2022-10-23T16:40:58;15.50;99.90
51253;DHT22;38936;47.808;19.936;2022-10-23T16:43:23;15.50;99.90
51253;DHT22;38936;47.808;19.936;2022-10-23T16:46:06;15.50;99.90
51253;DHT22;38936;47.808;19.936;2022-10-23T16:48:33;15.50;99.90
51253;DHT22;38936;47.808;19.936;2022-10-23T16:51:03;15.50;99.90
51253;DHT22;38936;47.808;19.936;2022-10-23T16:53:30;15.50;99.90
51253;DHT22;38936;47.808;19.936;2022-10-23T16:55:57;15.50;99.90
51253;DHT22;38936;47.808;19.936;2022-10-23T16:58:26;15.50;99.90
51253;DHT22;38936;47.808;19.936;2022-10-23T17:01:04;15.50;99.90
51253;DHT22;38936;47.808;19.936;2022-10-23T17:03:33;15.60;99.90
51253;DHT22;38936;47.808;19.936;2022-10-23T17:06:03;15.60;99.90
51253;DHT22;38936;47.808;19.936;2022-10-23T17:08:29;15.60;99.90
51253;DHT22;38936;47.808;19.936;2022-10-23T17:13:36;15.60;99.90
51253;DHT22;38936;47.808;19.936;2022-10-23T17:16:10;15.60;99.90
51253;DHT22;38936;47.808;19.936;2022-10-23T17:18:37;15.60;99.90
51253;DHT22;38936;47.808;19.936;2022-10-23T17:21:04;15.60;99.90
51253;DHT22;38936;47.808;19.936;2022-10-23T17:23:31;15.60;99.90
51253;DHT22;38936;47.808;19.936;2022-10-23T17:25:57;15.60;99.90
51253;DHT22;38936;47.808;19.936;2022-10-23T17:28:24;15.50;99.90
51253;DHT22;38936;47.808;19.936;2022-10-23T17:30:50;15.50;99.90
51253;DHT22;38936;47.808;19.936;2022-10-23T17:33:16;15.50;99.90
51253;DHT22;38936;47.808;19.936;2022-10-23T17:35:41;15.50;99.90
51253;DHT22;38936;47.808;19.936;2022-10-23T17:38:10;15.60;99.90
51253;DHT22;38936;47.808;19.936;2022-10-23T17:40:35;15.60;99.90
51253;DHT22;38936;47.808;19.936;2022-10-23T17:43:01;15.60;99.90
51253;DHT22;38936;47.808;19.936;2022-10-23T17:45:28;15.70;99.90